sensor_id;sensor_type;location;lat;lon;timestamp;pressure;altitude;pressure_sealevel;temperature;humidity
83633;BME280;73595;53.084;6.696;2024-03-02T00:02:07;100108.19;;;6.43;78.83
83633;BME280;73595;53.084;6.696;2024-03-02T00:04:33;100117.59;;;6.46;78.78
83633;BME280;73595;53.084;6.696;2024-03-02T00:06:58;100103.28;;;6.40;78.82
83633;BME280;73595;53.084;6.696;2024-03-02T00:09:24;100046.44;;;6.05;78.87
83633;BME280;73595;53.084;6.696;2024-03-02T00:11:50;100092.69;;;6.24;78.47
83633;BME280;73595;53.084;6.696;2024-03-02T00:14:16;100125.69;;;6.53;78.88
83633;BME280;73595;53.084;6.696;2024-03-02T00:16:42;100120.06;;;6.47;79.02
83633;BME280;73595;53.084;6.696;2024-03-02T00:19:09;100117.41;;;6.39;79.08
83633;BME280;73595;53.084;6.696;2024-03-02T00:21:34;100125.97;;;6.49;79.27
83633;BME280;73595;53.084;6.696;2024-03-02T00:24:01;100130.44;;;6.49;79.30
83633;BME280;73595;53.084;6.696;2024-03-02T00:26:32;100091.91;;;6.32;79.25
83633;BME280;73595;53.084;6.696;2024-03-02T00:28:58;100101.13;;;6.36;79.58
83633;BME280;73595;53.084;6.696;2024-03-02T00:31:25;100044.63;;;5.97;79.51
83633;BME280;73595;53.084;6.696;2024-03-02T00:33:50;100118.41;;;6.46;79.28
83633;BME280;73595;53.084;6.696;2024-03-02T00:36:26;100110.69;;;6.45;79.27
83633;BME280;73595;53.084;6.696;2024-03-02T00:38:55;100091.41;;;6.36;79.47
83633;BME280;73595;53.084;6.696;2024-03-02T00:41:30;100092.56;;;6.34;79.53
83633;BME280;73595;53.084;6.696;2024-03-02T00:44:01;100113.97;;;6.47;79.65
83633;BME280;73595;53.084;6.696;2024-03-02T00:46:46;100112.81;;;6.49;79.77
83633;BME280;73595;53.084;6.696;2024-03-02T00:49:23;100115.63;;;6.48;79.49
83633;BME280;73595;53.084;6.696;2024-03-02T00:51:50;100106.72;;;6.41;79.86
83633;BME280;73595;53.084;6.696;2024-03-02T00:54:20;100085.34;;;6.36;79.72
83633;BME280;73595;53.084;6.696;2024-03-02T00:56:47;100061.13;;;6.24;79.54
83633;BME280;73595;53.084;6.696;2024-03-02T00:59:12;100094.09;;;6.44;79.52
83633;BME280;73595;53.084;6.696;2024-03-02T01:01:37;100102.47;;;6.48;79.40
83633;BME280;73595;53.084;6.696;2024-03-02T01:04:04;100099.00;;;6.47;79.72
83633;BME280;73595;53.084;6.696;2024-03-02T01:06:30;100091.28;;;6.46;79.63
83633;BME280;73595;53.084;6.696;2024-03-02T01:08:56;100091.47;;;6.44;80.06
83633;BME280;73595;53.084;6.696;2024-03-02T01:11:21;100044.22;;;6.18;79.99
83633;BME280;73595;53.084;6.696;2024-03-02T01:13:48;100090.13;;;6.48;79.89
83633;BME280;73595;53.084;6.696;2024-03-02T01:16:14;100082.91;;;6.50;80.06
83633;BME280;73595;53.084;6.696;2024-03-02T01:18:41;100081.94;;;6.51;79.99
83633;BME280;73595;53.084;6.696;2024-03-02T01:21:08;100092.78;;;6.57;80.13
83633;BME280;73595;53.084;6.696;2024-03-02T01:23:33;100069.41;;;6.54;79.85
83633;BME280;73595;53.084;6.696;2024-03-02T01:25:59;100067.78;;;6.61;80.27
83633;BME280;73595;53.084;6.696;2024-03-02T01:28:24;100076.03;;;6.58;80.28
83633;BME280;73595;53.084;6.696;2024-03-02T01:30:49;100067.94;;;6.59;80.04
83633;BME280;73595;53.084;6.696;2024-03-02T01:33:16;100058.56;;;6.57;80.05
83633;BME280;73595;53.084;6.696;2024-03-02T01:35:42;100033.88;;;6.49;80.35
83633;BME280;73595;53.084;6.696;2024-03-02T01:38:07;100002.44;;;6.23;80.10
83633;BME280;73595;53.084;6.696;2024-03-02T01:40:37;100071.75;;;6.65;80.06
83633;BME280;73595;53.084;6.696;2024-03-02T01:43:06;100058.56;;;6.57;80.04
83633;BME280;73595;53.084;6.696;2024-03-02T01:45:32;100052.63;;;6.55;79.93
83633;BME280;73595;53.084;6.696;2024-03-02T01:47:59;100056.94;;;6.64;79.89
83633;BME280;73595;53.084;6.696;2024-03-02T01:50:34;100031.59;;;6.55;79.38
83633;BME280;73595;53.084;6.696;2024-03-02T01:53:00;100058.59;;;6.73;79.81
83633;BME280;73595;53.084;6.696;2024-03-02T01:55:27;100048.88;;;6.65;80.04
83633;BME280;73595;53.084;6.696;2024-03-02T01:57:55;100054.97;;;6.66;80.20
83633;BME280;73595;53.084;6.696;2024-03-02T02:00:21;100059.88;;;6.69;80.25
83633;BME280;73595;53.084;6.696;2024-03-02T02:02:48;100051.69;;;6.64;80.17
83633;BME280;73595;53.084;6.696;2024-03-02T02:05:15;100033.88;;;6.41;80.45
83633;BME280;73595;53.084;6.696;2024-03-02T02:07:41;100057.59;;;6.66;80.28
83633;BME280;73595;53.084;6.696;2024-03-02T02:10:09;100030.59;;;6.47;80.36
83633;BME280;73595;53.084;6.696;2024-03-02T02:12:34;100035.72;;;6.57;80.18
83633;BME280;73595;53.084;6.696;2024-03-02T02:15:00;100039.81;;;6.60;80.55
83633;BME280;73595;53.084;6.696;2024-03-02T02:17:25;100048.06;;;6.65;80.30
83633;BME280;73595;53.084;6.696;2024-03-02T02:19:51;100031.28;;;6.58;80.38
83633;BME280;73595;53.084;6.696;2024-03-02T02:22:16;100032.41;;;6.63;79.98
83633;BME280;73595;53.084;6.696;2024-03-02T02:24:42;100023.38;;;6.58;80.25
83633;BME280;73595;53.084;6.696;2024-03-02T02:27:08;100034.22;;;6.63;80.43
83633;BME280;73595;53.084;6.696;2024-03-02T02:29:34;100028.94;;;6.63;80.34
83633;BME280;73595;53.084;6.696;2024-03-02T02:31:59;100029.13;;;6.61;79.86
83633;BME280;73595;53.084;6.696;2024-03-02T02:34:24;100008.56;;;6.48;80.13
83633;BME280;73595;53.084;6.696;2024-03-02T02:36:50;100018.78;;;6.51;80.22
83633;BME280;73595;53.084;6.696;2024-03-02T02:39:17;100011.34;;;6.55;80.28
83633;BME280;73595;53.084;6.696;2024-03-02T02:41:44;100024.34;;;6.57;80.29
83633;BME280;73595;53.084;6.696;2024-03-02T02:44:10;100029.63;;;6.73;80.04
83633;BME280;73595;53.084;6.696;2024-03-02T02:46:38;100006.25;;;6.62;79.97
83633;BME280;73595;53.084;6.696;2024-03-02T02:49:03;100000.34;;;6.60;79.61
83633;BME280;73595;53.084;6.696;2024-03-02T02:51:29;100037.50;;;6.81;79.57
83633;BME280;73595;53.084;6.696;2024-03-02T02:53:54;100037.22;;;6.84;79.12
83633;BME280;73595;53.084;6.696;2024-03-02T02:56:19;100006.75;;;6.73;78.59
83633;BME280;73595;53.084;6.696;2024-03-02T02:58:44;100028.63;;;6.98;78.27
83633;BME280;73595;53.084;6.696;2024-03-02T03:01:10;100019.91;;;6.98;77.97
83633;BME280;73595;53.084;6.696;2024-03-02T03:03:35;100011.19;;;6.97;77.56
83633;BME280;73595;53.084;6.696;2024-03-02T03:06:01;100038.31;;;7.14;77.63
83633;BME280;73595;53.084;6.696;2024-03-02T03:08:27;100023.53;;;7.05;77.39
83633;BME280;73595;53.084;6.696;2024-03-02T03:10:52;100019.72;;;7.16;76.69
83633;BME280;73595;53.084;6.696;2024-03-02T03:13:18;100034.53;;;7.25;77.35
83633;BME280;73595;53.084;6.696;2024-03-02T03:15:43;100025.78;;;7.24;76.93
83633;BME280;73595;53.084;6.696;2024-03-02T03:18:08;100010.47;;;7.20;76.63
83633;BME280;73595;53.084;6.696;2024-03-02T03:20:35;100019.69;;;7.32;76.53
83633;BME280;73595;53.084;6.696;2024-03-02T03:23:00;100027.91;;;7.37;76.12
83633;BME280;73595;53.084;6.696;2024-03-02T03:25:26;100026.91;;;7.38;75.96
83633;BME280;73595;53.084;6.696;2024-03-02T03:27:51;100024.28;;;7.38;75.95
83633;BME280;73595;53.084;6.696;2024-03-02T03:30:21;100035.09;;;7.51;74.98
83633;BME280;73595;53.084;6.696;2024-03-02T03:32:46;100034.94;;;7.53;75.46
83633;BME280;73595;53.084;6.696;2024-03-02T03:35:13;100041.19;;;7.52;75.13
83633;BME280;73595;53.084;6.696;2024-03-02T03:37:40;100034.47;;;7.49;75.19
83633;BME280;73595;53.084;6.696;2024-03-02T03:40:06;100018.84;;;7.40;76.13
83633;BME280;73595;53.084;6.696;2024-03-02T03:42:39;100033.81;;;7.47;76.01
83633;BME280;73595;53.084;6.696;2024-03-02T03:45:05;100036.59;;;7.46;75.99
83633;BME280;73595;53.084;6.696;2024-03-02T03:47:31;100035.63;;;7.39;76.00
83633;BME280;73595;53.084;6.696;2024-03-02T03:49:57;100021.81;;;7.37;75.79
83633;BME280;73595;53.084;6.696;2024-03-02T03:52:23;100035.09;;;7.51;75.52
83633;BME280;73595;53.084;6.696;2024-03-02T03:54:48;100036.59;;;7.46;75.90
83633;BME280;73595;53.084;6.696;2024-03-02T03:57:13;99991.69;;;7.31;75.62
83633;BME280;73595;53.084;6.696;2024-03-02T03:59:39;100005.81;;;7.38;75.87
83633;BME280;73595;53.084;6.696;2024-03-02T04:02:04;100025.59;;;7.34;76.23
83633;BME280;73595;53.084;6.696;2024-03-02T04:04:29;100012.78;;;7.31;76.07
83633;BME280;73595;53.084;6.696;2024-03-02T04:06:55;100027.41;;;7.33;76.42
83633;BME280;73595;53.084;6.696;2024-03-02T04:09:20;100024.97;;;7.24;76.76
83633;BME280;73595;53.084;6.696;2024-03-02T04:11:46;100021.19;;;7.18;76.86
83633;BME280;73595;53.084;6.696;2024-03-02T04:14:11;100018.22;;;7.13;76.56
83633;BME280;73595;53.084;6.696;2024-03-02T04:16:37;100021.69;;;7.14;77.01
83633;BME280;73595;53.084;6.696;2024-03-02T04:19:03;100036.00;;;7.19;76.93
83633;BME280;73595;53.084;6.696;2024-03-02T04:21:30;100031.88;;;7.25;77.00
83633;BME280;73595;53.084;6.696;2024-03-02T04:23:56;100045.03;;;7.33;76.92
83633;BME280;73595;53.084;6.696;2024-03-02T04:26:24;100021.03;;;7.20;76.88
83633;BME280;73595;53.084;6.696;2024-03-02T04:28:50;100044.38;;;7.31;77.04
83633;BME280;73595;53.084;6.696;2024-03-02T04:31:15;100035.50;;;7.32;76.64
83633;BME280;73595;53.084;6.696;2024-03-02T04:33:43;100015.28;;;7.16;76.58
83633;BME280;73595;53.084;6.696;2024-03-02T04:36:08;100049.81;;;7.38;77.23
83633;BME280;73595;53.084;6.696;2024-03-02T04:38:38;100053.09;;;7.40;76.81
83633;BME280;73595;53.084;6.696;2024-03-02T04:41:04;100056.53;;;7.40;76.75
83633;BME280;73595;53.084;6.696;2024-03-02T04:43:34;100056.41;;;7.42;76.71
83633;BME280;73595;53.084;6.696;2024-03-02T04:46:00;100049.81;;;7.38;76.81
83633;BME280;73595;53.084;6.696;2024-03-02T04:48:25;100050.63;;;7.38;76.83
83633;BME280;73595;53.084;6.696;2024-03-02T04:50:51;100033.34;;;7.27;76.75
83633;BME280;73595;53.084;6.696;2024-03-02T04:53:18;99979.91;;;6.94;76.82
83633;BME280;73595;53.084;6.696;2024-03-02T04:55:43;100044.88;;;7.35;76.96
83633;BME280;73595;53.084;6.696;2024-03-02T04:58:08;99965.78;;;6.79;77.31
83633;BME280;73595;53.084;6.696;2024-03-02T05:00:34;100060.69;;;7.35;76.63
83633;BME280;73595;53.084;6.696;2024-03-02T05:03:00;100053.63;;;7.35;77.06
83633;BME280;73595;53.084;6.696;2024-03-02T05:05:26;100033.19;;;7.21;77.08
83633;BME280;73595;53.084;6.696;2024-03-02T05:07:52;100056.59;;;7.24;78.43
83633;BME280;73595;53.084;6.696;2024-03-02T05:10:18;100054.13;;;7.14;79.41
83633;BME280;73595;53.084;6.696;2024-03-02T05:12:43;100031.59;;;6.95;79.74
83633;BME280;73595;53.084;6.696;2024-03-02T05:15:13;100069.59;;;7.17;79.69
83633;BME280;73595;53.084;6.696;2024-03-02T05:17:39;100035.38;;;6.93;79.77
83633;BME280;73595;53.084;6.696;2024-03-02T05:20:06;100070.59;;;7.16;79.51
83633;BME280;73595;53.084;6.696;2024-03-02T05:22:33;100071.59;;;7.15;79.34
83633;BME280;73595;53.084;6.696;2024-03-02T05:25:00;100080.47;;;7.22;79.55
83633;BME280;73595;53.084;6.696;2024-03-02T05:27:27;100073.38;;;7.15;78.86
83633;BME280;73595;53.084;6.696;2024-03-02T05:29:52;100073.56;;;7.13;78.84
83633;BME280;73595;53.084;6.696;2024-03-02T05:32:17;100057.44;;;7.00;78.79
83633;BME280;73595;53.084;6.696;2024-03-02T05:34:43;100052.34;;;6.98;78.69
83633;BME280;73595;53.084;6.696;2024-03-02T05:37:09;100088.88;;;7.10;78.71
83633;BME280;73595;53.084;6.696;2024-03-02T05:39:35;100086.53;;;7.15;78.70
83633;BME280;73595;53.084;6.696;2024-03-02T05:42:00;100025.69;;;6.77;79.08
83633;BME280;73595;53.084;6.696;2024-03-02T05:44:26;100074.72;;;7.11;78.36
83633;BME280;73595;53.084;6.696;2024-03-02T05:46:51;100088.03;;;7.17;78.51
83633;BME280;73595;53.084;6.696;2024-03-02T05:49:17;100090.50;;;7.19;78.26
83633;BME280;73595;53.084;6.696;2024-03-02T05:51:43;100067.97;;;7.16;77.63
83633;BME280;73595;53.084;6.696;2024-03-02T05:54:09;100106.81;;;7.30;78.13
83633;BME280;73595;53.084;6.696;2024-03-02T05:56:34;100083.44;;;7.19;77.60
83633;BME280;73595;53.084;6.696;2024-03-02T05:59:00;100108.94;;;7.35;77.71
83633;BME280;73595;53.084;6.696;2024-03-02T06:01:45;100103.19;;;7.23;77.83
83633;BME280;73595;53.084;6.696;2024-03-02T06:04:12;100126.06;;;7.39;77.32
83633;BME280;73595;53.084;6.696;2024-03-02T06:06:42;100123.41;;;7.39;77.19
83633;BME280;73595;53.084;6.696;2024-03-02T06:09:09;100116.03;;;7.26;77.21
83633;BME280;73595;53.084;6.696;2024-03-02T06:11:40;100128.88;;;7.38;77.62
83633;BME280;73595;53.084;6.696;2024-03-02T06:14:08;100119.50;;;7.35;77.38
83633;BME280;73595;53.084;6.696;2024-03-02T06:16:33;100119.16;;;7.22;77.40
83633;BME280;73595;53.084;6.696;2024-03-02T06:18:59;100133.81;;;7.24;77.74
83633;BME280;73595;53.084;6.696;2024-03-02T06:21:25;100140.25;;;7.30;78.06
83633;BME280;73595;53.084;6.696;2024-03-02T06:23:51;100152.44;;;7.23;77.98
83633;BME280;73595;53.084;6.696;2024-03-02T06:26:17;100153.41;;;7.14;78.46
83633;BME280;73595;53.084;6.696;2024-03-02T06:28:45;100158.34;;;7.17;78.15
83633;BME280;73595;53.084;6.696;2024-03-02T06:31:10;100164.63;;;7.16;78.42
83633;BME280;73595;53.084;6.696;2024-03-02T06:33:36;100166.56;;;7.14;78.60
83633;BME280;73595;53.084;6.696;2024-03-02T06:36:01;100167.91;;;7.10;78.65
83633;BME280;73595;53.084;6.696;2024-03-02T06:38:27;100125.06;;;6.75;78.42
83633;BME280;73595;53.084;6.696;2024-03-02T06:40:53;100128.50;;;6.75;78.65
83633;BME280;73595;53.084;6.696;2024-03-02T06:43:18;100178.41;;;7.01;78.55
83633;BME280;73595;53.084;6.696;2024-03-02T06:45:48;100180.56;;;6.98;78.86
83633;BME280;73595;53.084;6.696;2024-03-02T06:48:13;100149.38;;;6.69;79.25
83633;BME280;73595;53.084;6.696;2024-03-02T06:50:43;100120.91;;;6.56;78.89
83633;BME280;73595;53.084;6.696;2024-03-02T06:53:09;100184.47;;;6.86;79.25
83633;BME280;73595;53.084;6.696;2024-03-02T06:55:34;100150.22;;;6.69;79.12
83633;BME280;73595;53.084;6.696;2024-03-02T06:58:01;100186.31;;;6.93;79.29
83633;BME280;73595;53.084;6.696;2024-03-02T07:00:26;100187.94;;;6.86;79.31
83633;BME280;73595;53.084;6.696;2024-03-02T07:02:53;100184.81;;;6.91;79.39
83633;BME280;73595;53.084;6.696;2024-03-02T07:05:19;100189.09;;;6.84;79.30
83633;BME280;73595;53.084;6.696;2024-03-02T07:07:46;100183.00;;;6.83;79.20
83633;BME280;73595;53.084;6.696;2024-03-02T07:10:11;100193.91;;;6.96;79.03
83633;BME280;73595;53.084;6.696;2024-03-02T07:12:37;100186.31;;;7.01;78.97
83633;BME280;73595;53.084;6.696;2024-03-02T07:15:13;100190.44;;;6.96;79.13
83633;BME280;73595;53.084;6.696;2024-03-02T07:17:54;100212.69;;;7.10;79.10
83633;BME280;73595;53.084;6.696;2024-03-02T07:20:19;100168.50;;;6.87;79.02
83633;BME280;73595;53.084;6.696;2024-03-02T07:22:45;100202.78;;;7.12;79.35
83633;BME280;73595;53.084;6.696;2024-03-02T07:25:13;100195.38;;;7.07;79.18
83633;BME280;73595;53.084;6.696;2024-03-02T07:27:39;100219.59;;;7.19;79.05
83633;BME280;73595;53.084;6.696;2024-03-02T07:30:07;100213.69;;;7.17;78.92
83633;BME280;73595;53.084;6.696;2024-03-02T07:32:33;100181.88;;;7.02;78.66
83633;BME280;73595;53.084;6.696;2024-03-02T07:34:58;100205.59;;;7.26;78.80
83633;BME280;73595;53.084;6.696;2024-03-02T07:37:24;100216.66;;;7.38;78.02
83633;BME280;73595;53.084;6.696;2024-03-02T07:39:50;100226.38;;;7.38;78.36
83633;BME280;73595;53.084;6.696;2024-03-02T07:42:16;100221.59;;;7.33;78.18
83633;BME280;73595;53.084;6.696;2024-03-02T07:44:41;100243.81;;;7.47;77.97
83633;BME280;73595;53.084;6.696;2024-03-02T07:47:07;100233.63;;;7.36;77.52
83633;BME280;73595;53.084;6.696;2024-03-02T07:49:34;100236.91;;;7.46;78.04
83633;BME280;73595;53.084;6.696;2024-03-02T07:52:00;100224.25;;;7.49;77.84
83633;BME280;73595;53.084;6.696;2024-03-02T07:54:25;100222.91;;;7.45;77.54
83633;BME280;73595;53.084;6.696;2024-03-02T07:56:50;100253.56;;;7.54;77.30
83633;BME280;73595;53.084;6.696;2024-03-02T07:59:16;100241.53;;;7.52;77.31
83633;BME280;73595;53.084;6.696;2024-03-02T08:01:42;100235.13;;;7.54;77.14
83633;BME280;73595;53.084;6.696;2024-03-02T08:04:07;100253.56;;;7.54;77.31
83633;BME280;73595;53.084;6.696;2024-03-02T08:06:32;100258.03;;;7.62;77.38
83633;BME280;73595;53.084;6.696;2024-03-02T08:09:00;100249.78;;;7.49;77.37
83633;BME280;73595;53.084;6.696;2024-03-02T08:11:29;100255.88;;;7.49;77.85
83633;BME280;73595;53.084;6.696;2024-03-02T08:13:56;100246.63;;;7.45;76.98
83633;BME280;73595;53.084;6.696;2024-03-02T08:16:28;100217.31;;;7.24;77.52
83633;BME280;73595;53.084;6.696;2024-03-02T08:18:53;100271.84;;;7.48;77.16
83633;BME280;73595;53.084;6.696;2024-03-02T08:21:19;100283.53;;;7.53;77.63
83633;BME280;73595;53.084;6.696;2024-03-02T08:23:48;100272.34;;;7.35;77.88
83633;BME280;73595;53.084;6.696;2024-03-02T08:26:13;100285.19;;;7.63;77.26
83633;BME280;73595;53.084;6.696;2024-03-02T08:28:39;100283.56;;;7.70;76.74
83633;BME280;73595;53.084;6.696;2024-03-02T08:31:09;100282.56;;;7.87;76.36
83633;BME280;73595;53.084;6.696;2024-03-02T08:33:35;100287.50;;;8.06;76.50
83633;BME280;73595;53.084;6.696;2024-03-02T08:36:00;100242.03;;;7.80;77.24
83633;BME280;73595;53.084;6.696;2024-03-02T08:38:28;100261.28;;;7.97;77.99
83633;BME280;73595;53.084;6.696;2024-03-02T08:40:55;100261.28;;;8.05;77.93
83633;BME280;73595;53.084;6.696;2024-03-02T08:43:24;100244.16;;;8.01;77.04
83633;BME280;73595;53.084;6.696;2024-03-02T08:45:53;100273.31;;;8.15;75.73
83633;BME280;73595;53.084;6.696;2024-03-02T08:48:20;100274.63;;;8.20;75.31
83633;BME280;73595;53.084;6.696;2024-03-02T08:51:12;100288.75;;;8.35;74.40
83633;BME280;73595;53.084;6.696;2024-03-02T08:54:18;100299.47;;;8.58;74.25
83633;BME280;73595;53.084;6.696;2024-03-02T08:56:45;100287.91;;;8.59;73.71
83633;BME280;73595;53.084;6.696;2024-03-02T08:59:17;100275.72;;;8.58;73.62
83633;BME280;73595;53.084;6.696;2024-03-02T09:01:43;100305.81;;;8.80;73.00
83633;BME280;73595;53.084;6.696;2024-03-02T09:04:11;100311.44;;;8.85;72.90
83633;BME280;73595;53.084;6.696;2024-03-02T09:06:45;100284.41;;;8.66;72.33
83633;BME280;73595;53.084;6.696;2024-03-02T09:09:10;100316.22;;;8.81;72.77
83633;BME280;73595;53.084;6.696;2024-03-02T09:11:35;100289.97;;;8.80;71.04
83633;BME280;73595;53.084;6.696;2024-03-02T09:14:01;100316.63;;;9.09;70.56
83633;BME280;73595;53.084;6.696;2024-03-02T09:16:26;100300.75;;;9.09;70.81
83633;BME280;73595;53.084;6.696;2024-03-02T09:18:56;100296.28;;;9.10;70.30
83633;BME280;73595;53.084;6.696;2024-03-02T09:21:21;100269.03;;;9.09;70.73
83633;BME280;73595;53.084;6.696;2024-03-02T09:23:48;100294.91;;;9.22;69.68
83633;BME280;73595;53.084;6.696;2024-03-02T09:26:13;100316.88;;;9.45;69.92
83633;BME280;73595;53.084;6.696;2024-03-02T09:28:42;100310.91;;;9.52;69.56
83633;BME280;73595;53.084;6.696;2024-03-02T09:31:09;100298.09;;;9.63;69.96
83633;BME280;73595;53.084;6.696;2024-03-02T09:33:34;100285.97;;;9.46;68.96
83633;BME280;73595;53.084;6.696;2024-03-02T09:36:00;100278.72;;;9.48;68.82
83633;BME280;73595;53.084;6.696;2024-03-02T09:38:25;100296.06;;;9.73;68.90
83633;BME280;73595;53.084;6.696;2024-03-02T09:40:51;100303.97;;;9.73;68.98
83633;BME280;73595;53.084;6.696;2024-03-02T09:43:17;100308.84;;;9.85;67.86
83633;BME280;73595;53.084;6.696;2024-03-02T09:45:44;100294.22;;;9.74;68.62
83633;BME280;73595;53.084;6.696;2024-03-02T09:48:10;100294.69;;;9.77;68.49
83633;BME280;73595;53.084;6.696;2024-03-02T09:50:35;100276.34;;;9.76;68.25
83633;BME280;73595;53.084;6.696;2024-03-02T09:53:01;100250.03;;;9.60;67.98
83633;BME280;73595;53.084;6.696;2024-03-02T09:55:29;100283.31;;;9.54;67.91
83633;BME280;73595;53.084;6.696;2024-03-02T09:57:54;100286.09;;;9.75;69.07
83633;BME280;73595;53.084;6.696;2024-03-02T10:00:22;100311.47;;;10.08;68.54
83633;BME280;73595;53.084;6.696;2024-03-02T10:02:47;100311.69;;;9.98;67.71
83633;BME280;73595;53.084;6.696;2024-03-02T10:05:24;100311.66;;;10.06;66.96
83633;BME280;73595;53.084;6.696;2024-03-02T10:08:03;100283.75;;;9.81;67.22
83633;BME280;73595;53.084;6.696;2024-03-02T10:10:38;100309.47;;;10.10;67.73
83633;BME280;73595;53.084;6.696;2024-03-02T10:13:12;100318.28;;;10.02;67.33
83633;BME280;73595;53.084;6.696;2024-03-02T10:15:41;100304.25;;;10.16;66.90
83633;BME280;73595;53.084;6.696;2024-03-02T10:18:10;100314.84;;;10.16;66.93
83633;BME280;73595;53.084;6.696;2024-03-02T10:20:38;100308.22;;;10.20;67.32
83633;BME280;73595;53.084;6.696;2024-03-02T10:25:36;100274.22;;;10.47;66.20
83633;BME280;73595;53.084;6.696;2024-03-02T10:28:01;100299.41;;;10.72;66.17
83633;BME280;73595;53.084;6.696;2024-03-02T10:30:27;100301.41;;;10.85;65.19
83633;BME280;73595;53.084;6.696;2024-03-02T10:32:54;100284.66;;;10.99;65.42
83633;BME280;73595;53.084;6.696;2024-03-02T10:35:23;100292.88;;;11.04;64.85
83633;BME280;73595;53.084;6.696;2024-03-02T10:37:53;100295.19;;;10.93;64.42
83633;BME280;73595;53.084;6.696;2024-03-02T10:40:22;100311.09;;;10.93;65.08
83633;BME280;73595;53.084;6.696;2024-03-02T10:42:49;100290.97;;;10.98;64.20
83633;BME280;73595;53.084;6.696;2024-03-02T10:45:15;100297.53;;;11.17;64.55
83633;BME280;73595;53.084;6.696;2024-03-02T10:47:42;100203.69;;;10.61;64.12
83633;BME280;73595;53.084;6.696;2024-03-02T10:50:08;100226.94;;;10.80;63.95
83633;BME280;73595;53.084;6.696;2024-03-02T10:52:37;100296.72;;;11.38;62.48
83633;BME280;73595;53.084;6.696;2024-03-02T10:55:04;100283.06;;;11.20;61.74
83633;BME280;73595;53.084;6.696;2024-03-02T10:57:41;100285.63;;;11.49;62.66
83633;BME280;73595;53.084;6.696;2024-03-02T11:00:11;100295.91;;;11.37;62.29
83633;BME280;73595;53.084;6.696;2024-03-02T11:02:42;100279.88;;;11.46;62.46
83633;BME280;73595;53.084;6.696;2024-03-02T11:05:12;100280.44;;;11.62;62.51
83633;BME280;73595;53.084;6.696;2024-03-02T11:07:39;100295.91;;;11.59;62.87
83633;BME280;73595;53.084;6.696;2024-03-02T11:10:07;100297.59;;;11.60;63.55
83633;BME280;73595;53.084;6.696;2024-03-02T11:12:39;100295.81;;;11.88;62.11
83633;BME280;73595;53.084;6.696;2024-03-02T11:15:17;100285.91;;;12.04;61.77
83633;BME280;73595;53.084;6.696;2024-03-02T11:17:43;100274.25;;;11.98;61.38
83633;BME280;73595;53.084;6.696;2024-03-02T11:20:11;100282.66;;;11.80;61.07
83633;BME280;73595;53.084;6.696;2024-03-02T11:22:37;100287.78;;;11.82;60.90
83633;BME280;73595;53.084;6.696;2024-03-02T11:25:03;100293.00;;;11.75;60.65
83633;BME280;73595;53.084;6.696;2024-03-02T11:32:56;100268.72;;;11.78;60.89
83633;BME280;73595;53.084;6.696;2024-03-02T11:35:25;100299.69;;;12.14;60.30
83633;BME280;73595;53.084;6.696;2024-03-02T11:37:51;100277.34;;;11.80;59.97
83633;BME280;73595;53.084;6.696;2024-03-02T11:40:21;100293.00;;;12.18;59.23
83633;BME280;73595;53.084;6.696;2024-03-02T11:42:47;100271.88;;;12.38;57.47
83633;BME280;73595;53.084;6.696;2024-03-02T11:45:17;100192.69;;;11.85;58.15
83633;BME280;73595;53.084;6.696;2024-03-02T11:47:50;100278.53;;;12.62;57.88
83633;BME280;73595;53.084;6.696;2024-03-02T11:50:35;100291.53;;;12.85;57.46
83633;BME280;73595;53.084;6.696;2024-03-02T11:53:12;100256.47;;;12.61;54.63
83633;BME280;73595;53.084;6.696;2024-03-02T11:55:40;100247.28;;;12.64;55.26
83633;BME280;73595;53.084;6.696;2024-03-02T11:58:13;100269.56;;;12.63;54.99
83633;BME280;73595;53.084;6.696;2024-03-02T12:00:58;100283.53;;;12.37;56.75
83633;BME280;73595;53.084;6.696;2024-03-02T12:03:27;100273.75;;;12.44;56.29
83633;BME280;73595;53.084;6.696;2024-03-02T12:05:54;100272.47;;;12.33;56.46
83633;BME280;73595;53.084;6.696;2024-03-02T12:08:19;100279.41;;;12.34;55.57
83633;BME280;73595;53.084;6.696;2024-03-02T12:10:59;100266.75;;;12.71;55.02
83633;BME280;73595;53.084;6.696;2024-03-02T12:13:25;100236.44;;;12.59;54.97
83633;BME280;73595;53.084;6.696;2024-03-02T12:15:55;100236.91;;;12.76;57.24
83633;BME280;73595;53.084;6.696;2024-03-02T12:18:21;100278.13;;;13.06;55.90
83633;BME280;73595;53.084;6.696;2024-03-02T12:20:49;100261.38;;;13.19;55.78
83633;BME280;73595;53.084;6.696;2024-03-02T12:23:14;100253.13;;;12.94;54.07
83633;BME280;73595;53.084;6.696;2024-03-02T12:25:40;100279.69;;;12.87;52.82
83633;BME280;73595;53.084;6.696;2024-03-02T12:28:05;100264.66;;;13.14;53.89
83633;BME280;73595;53.084;6.696;2024-03-02T12:30:35;100261.13;;;13.00;53.33
83633;BME280;73595;53.084;6.696;2024-03-02T12:33:01;100267.34;;;12.73;54.28
83633;BME280;73595;53.084;6.696;2024-03-02T12:35:27;100269.16;;;13.14;54.86
83633;BME280;73595;53.084;6.696;2024-03-02T12:37:53;100275.50;;;13.19;55.26
83633;BME280;73595;53.084;6.696;2024-03-02T12:40:20;100270.56;;;13.03;53.62
83633;BME280;73595;53.084;6.696;2024-03-02T12:42:47;100249.28;;;13.03;54.23
83633;BME280;73595;53.084;6.696;2024-03-02T12:45:13;100276.94;;;13.15;54.33
83633;BME280;73595;53.084;6.696;2024-03-02T12:47:40;100265.22;;;12.96;54.48
83633;BME280;73595;53.084;6.696;2024-03-02T12:50:07;100273.97;;;12.90;53.66
83633;BME280;73595;53.084;6.696;2024-03-02T12:52:33;100264.47;;;12.68;54.30
83633;BME280;73595;53.084;6.696;2024-03-02T12:55:00;100284.34;;;12.79;55.13
83633;BME280;73595;53.084;6.696;2024-03-02T12:57:26;100277.06;;;12.94;56.77
83633;BME280;73595;53.084;6.696;2024-03-02T12:59:52;100285.06;;;13.00;58.03
83633;BME280;73595;53.084;6.696;2024-03-02T13:02:21;100257.44;;;12.54;58.89
83633;BME280;73595;53.084;6.696;2024-03-02T13:04:53;100276.34;;;12.72;57.53
83633;BME280;73595;53.084;6.696;2024-03-02T13:07:19;100274.25;;;13.09;55.98